createdAt,value
2017-08-18T00:00:50.207Z,7.32
2017-08-18T00:03:16.880Z,7.22
2017-08-18T00:05:43.580Z,7.28
2017-08-18T00:08:10.263Z,7.20
2017-08-18T00:10:36.972Z,6.70
2017-08-18T00:13:03.667Z,6.43
2017-08-18T00:15:30.384Z,7.20
2017-08-18T00:17:57.061Z,7.70
2017-08-18T00:20:23.745Z,7.25
2017-08-18T00:22:50.432Z,7.57
2017-08-18T00:25:17.104Z,7.70
2017-08-18T00:27:43.808Z,6.97
2017-08-18T00:30:10.483Z,7.62
2017-08-18T00:32:37.185Z,7.80
2017-08-18T00:35:03.864Z,8.48
2017-08-18T00:37:30.560Z,8.10
2017-08-18T00:39:57.235Z,8.85
2017-08-18T00:42:23.939Z,8.93
2017-08-18T00:44:50.620Z,9.10
2017-08-18T00:47:17.323Z,7.75
2017-08-18T00:49:43.996Z,8.75
2017-08-18T00:52:10.672Z,7.35
2017-08-18T00:54:37.340Z,7.90
2017-08-18T00:57:04.010Z,7.80
2017-08-18T00:59:30.715Z,8.38
2017-08-18T01:01:57.392Z,7.37
2017-08-18T01:04:24.087Z,8.13
2017-08-18T01:06:50.764Z,7.37
2017-08-18T01:09:17.460Z,9.07
2017-08-18T01:11:44.140Z,7.72
2017-08-18T01:14:10.832Z,8.23
2017-08-18T01:16:37.500Z,7.80
2017-08-18T01:19:04.175Z,7.45
2017-08-18T01:21:30.851Z,8.77
2017-08-18T01:23:57.530Z,7.87
2017-08-18T01:26:24.204Z,7.95
2017-08-18T01:28:50.878Z,7.93
2017-08-18T01:31:17.576Z,7.50
2017-08-18T01:33:44.244Z,7.07
2017-08-18T01:36:10.914Z,7.53
2017-08-18T01:38:37.600Z,6.85
2017-08-18T01:41:04.273Z,7.07
2017-08-18T01:43:30.943Z,7.15
2017-08-18T01:45:57.613Z,7.22
2017-08-18T01:48:24.285Z,6.97
2017-08-18T01:50:50.963Z,7.10
2017-08-18T01:53:17.636Z,6.70
2017-08-18T01:55:44.307Z,6.57
2017-08-18T01:58:11.004Z,7.18
2017-08-18T02:00:37.679Z,6.70
2017-08-18T02:03:04.354Z,7.82
2017-08-18T02:05:31.033Z,7.20
2017-08-18T02:07:57.709Z,7.70
2017-08-18T02:10:24.380Z,6.82
2017-08-18T02:12:51.059Z,7.10
2017-08-18T02:15:17.728Z,6.15
2017-08-18T02:17:44.399Z,5.55
2017-08-18T02:20:11.071Z,6.07
2017-08-18T02:22:37.740Z,5.57
2017-08-18T02:25:04.411Z,5.75
2017-08-18T02:27:31.103Z,6.15
2017-08-18T02:29:57.776Z,5.70
2017-08-18T02:32:24.451Z,6.65
2017-08-18T02:34:51.160Z,6.35
2017-08-18T02:37:17.841Z,5.78
2017-08-18T02:39:44.549Z,6.30
2017-08-18T02:42:11.219Z,5.90
2017-08-18T02:44:37.901Z,6.18
2017-08-18T02:47:04.581Z,5.57
2017-08-18T02:49:31.260Z,5.97
2017-08-18T02:51:57.937Z,6.05
2017-08-18T02:54:24.612Z,6.03
2017-08-18T02:56:51.293Z,5.80
2017-08-18T02:59:17.969Z,5.87
2017-08-18T03:01:44.644Z,6.10
2017-08-18T03:04:11.317Z,4.90
2017-08-18T03:06:37.988Z,5.75
2017-08-18T03:09:05.668Z,5.62
2017-08-18T03:11:32.340Z,5.75
2017-08-18T03:13:59.040Z,5.97
2017-08-18T03:16:25.716Z,6.30
2017-08-18T03:18:52.415Z,5.55
2017-08-18T03:21:19.104Z,6.18
2017-08-18T03:23:45.800Z,5.68
2017-08-18T03:26:12.488Z,6.68
2017-08-18T03:28:39.207Z,7.43
2017-08-18T03:31:05.876Z,7.70
2017-08-18T03:33:32.572Z,7.37
2017-08-18T03:35:59.248Z,7.15
2017-08-18T03:38:25.944Z,6.95
2017-08-18T03:40:52.616Z,7.78
2017-08-18T03:43:19.328Z,6.87
2017-08-18T03:45:46.004Z,6.45
2017-08-18T03:48:12.676Z,6.50
2017-08-18T03:50:39.347Z,7.80
2017-08-18T03:53:06.028Z,7.03
2017-08-18T03:55:32.726Z,7.30
2017-08-18T03:57:59.400Z,7.95
2017-08-18T04:00:26.100Z,7.68
2017-08-18T04:02:52.767Z,6.43
2017-08-18T04:05:19.468Z,6.80
2017-08-18T04:07:46.137Z,6.97
2017-08-18T04:10:12.834Z,7.12
2017-08-18T04:12:39.516Z,6.28
2017-08-18T04:15:06.216Z,6.87
2017-08-18T04:17:32.888Z,6.90
2017-08-18T04:19:59.564Z,6.50
2017-08-18T04:22:26.229Z,6.70
2017-08-18T04:24:52.899Z,6.90
2017-08-18T04:27:19.584Z,5.75
2017-08-18T04:29:46.260Z,6.80
2017-08-18T04:32:12.961Z,6.45
2017-08-18T04:34:39.705Z,6.68
2017-08-18T04:37:06.416Z,6.43
2017-08-18T04:39:33.090Z,6.00
2017-08-18T04:41:59.783Z,6.20
2017-08-18T04:44:26.460Z,6.00
2017-08-18T04:46:53.164Z,6.30
2017-08-18T04:49:19.835Z,5.95
2017-08-18T04:51:46.534Z,5.90
2017-08-18T04:54:13.211Z,6.18
2017-08-18T04:56:39.893Z,6.30
2017-08-18T04:59:06.568Z,6.32
2017-08-18T05:01:33.252Z,5.80
2017-08-18T05:03:59.952Z,6.57
2017-08-18T05:06:26.623Z,6.90
2017-08-18T05:08:53.327Z,6.20
2017-08-18T05:11:19.999Z,6.60
2017-08-18T05:13:46.708Z,5.82
2017-08-18T05:16:13.390Z,5.82
2017-08-18T05:18:40.104Z,5.62
2017-08-18T05:21:06.783Z,5.97
2017-08-18T05:23:33.479Z,5.15
2017-08-18T05:26:00.173Z,5.60
2017-08-18T05:28:26.892Z,5.85
2017-08-18T05:30:53.591Z,5.40
2017-08-18T05:33:20.272Z,5.90
2017-08-18T05:35:46.940Z,5.90
2017-08-18T05:38:13.608Z,5.40
2017-08-18T05:40:40.277Z,5.43
2017-08-18T05:43:06.948Z,6.23
2017-08-18T05:45:33.663Z,5.50
2017-08-18T05:48:00.339Z,5.83
2017-08-18T05:50:27.035Z,5.37
2017-08-18T05:52:53.704Z,5.90
2017-08-18T05:55:20.416Z,5.63
2017-08-18T05:57:47.083Z,5.50
2017-08-18T06:00:13.757Z,5.70
2017-08-18T06:02:40.428Z,5.63
2017-08-18T06:05:07.100Z,4.70
2017-08-18T06:07:33.775Z,5.50
2017-08-18T06:10:00.440Z,5.30
2017-08-18T06:12:27.131Z,5.03
2017-08-18T06:14:53.805Z,6.07
2017-08-18T06:17:20.490Z,5.60
2017-08-18T06:19:47.156Z,4.80
2017-08-18T06:22:13.864Z,5.60
2017-08-18T06:24:40.540Z,5.40
2017-08-18T06:27:07.220Z,5.57
2017-08-18T06:29:33.879Z,5.57
2017-08-18T06:32:00.556Z,5.47
2017-08-18T06:34:27.215Z,6.27
2017-08-18T06:36:53.892Z,5.70
2017-08-18T06:39:20.564Z,6.10
2017-08-18T06:41:47.232Z,6.23
2017-08-18T06:44:13.913Z,5.77
2017-08-18T06:46:40.584Z,7.00
2017-08-18T06:49:07.288Z,6.32
2017-08-18T06:51:33.968Z,7.12
2017-08-18T06:54:00.672Z,8.45
2017-08-18T06:56:27.352Z,7.85
2017-08-18T06:58:54.077Z,7.35
2017-08-18T07:01:20.755Z,7.00
2017-08-18T07:03:47.444Z,7.15
2017-08-18T07:06:14.120Z,8.20
2017-08-18T07:08:40.800Z,8.07
2017-08-18T07:11:07.484Z,8.27
2017-08-18T07:13:34.165Z,7.95
2017-08-18T07:16:00.848Z,8.90
2017-08-18T07:18:27.529Z,7.25
2017-08-18T07:20:54.237Z,8.43
2017-08-18T07:23:20.923Z,7.97
2017-08-18T07:25:47.611Z,7.63
2017-08-18T07:28:14.292Z,8.20
2017-08-18T07:30:40.992Z,8.95
2017-08-18T07:33:07.665Z,8.40
2017-08-18T07:35:34.380Z,7.35
2017-08-18T07:38:01.059Z,8.15
2017-08-18T07:40:27.731Z,9.30
2017-08-18T07:42:54.407Z,8.30
2017-08-18T07:45:21.068Z,8.37
2017-08-18T07:47:48.172Z,8.03
2017-08-18T07:50:14.850Z,7.30
2017-08-18T07:52:41.531Z,7.85
2017-08-18T07:55:08.196Z,7.40
2017-08-18T07:57:34.863Z,7.23
2017-08-18T08:00:01.540Z,6.50
2017-08-18T08:02:28.224Z,5.80
2017-08-18T08:04:54.897Z,7.00
2017-08-18T08:07:21.589Z,7.20
2017-08-18T08:09:48.255Z,6.93
2017-08-18T08:12:14.968Z,6.72
2017-08-18T08:14:41.635Z,5.93
2017-08-18T08:17:08.305Z,7.63
2017-08-18T08:19:34.970Z,6.97
2017-08-18T08:22:01.641Z,7.60
2017-08-18T08:24:28.330Z,6.72
2017-08-18T08:26:55.002Z,6.33
2017-08-18T08:29:21.667Z,7.10
2017-08-18T08:31:48.336Z,6.00
2017-08-18T08:34:15.176Z,6.37
2017-08-18T08:36:41.876Z,5.73
2017-08-18T08:39:08.548Z,5.87
2017-08-18T08:41:35.216Z,5.30
2017-08-18T08:44:01.919Z,5.47
2017-08-18T08:46:28.593Z,4.67
2017-08-18T08:48:55.259Z,5.40
2017-08-18T08:51:21.936Z,4.70
2017-08-18T08:53:48.612Z,4.90
2017-08-18T08:56:15.292Z,5.57
2017-08-18T08:58:41.964Z,4.87
2017-08-18T09:01:08.628Z,5.37
2017-08-18T09:03:35.306Z,4.50
2017-08-18T09:06:01.979Z,5.20
2017-08-18T09:08:28.652Z,5.53
2017-08-18T09:10:55.321Z,4.40
2017-08-18T09:13:21.983Z,4.80
2017-08-18T09:15:48.651Z,4.40
2017-08-18T09:18:15.336Z,4.67
2017-08-18T09:20:42.007Z,4.23
2017-08-18T09:23:08.699Z,4.20
2017-08-18T09:25:35.372Z,4.20
2017-08-18T09:28:02.075Z,3.80
2017-08-18T09:30:28.748Z,3.85
2017-08-18T09:32:55.448Z,4.15
2017-08-18T09:35:22.128Z,4.50
2017-08-18T09:37:48.836Z,4.65
2017-08-18T09:40:15.515Z,5.03
2017-08-18T09:42:42.229Z,4.40
2017-08-18T09:45:08.906Z,4.50
2017-08-18T09:47:35.575Z,5.10
2017-08-18T09:50:08.081Z,5.15
2017-08-18T09:52:40.535Z,5.35
2017-08-18T09:55:13.184Z,4.50
2017-08-18T09:57:45.692Z,5.10
2017-08-18T10:00:12.380Z,5.35
2017-08-18T10:02:39.075Z,4.97
2017-08-18T10:05:05.764Z,5.70
2017-08-18T10:07:33.480Z,5.30
2017-08-18T10:10:00.180Z,5.45
2017-08-18T10:12:26.855Z,4.62
2017-08-18T10:14:53.548Z,4.18
2017-08-18T10:17:20.214Z,3.55
2017-08-18T10:19:46.903Z,3.55
2017-08-18T10:22:13.568Z,3.58
2017-08-18T10:24:40.276Z,3.35
2017-08-18T10:27:06.947Z,3.17
2017-08-18T10:29:33.616Z,3.80
2017-08-18T10:32:00.287Z,3.83
2017-08-18T10:34:26.959Z,3.97
2017-08-18T10:36:53.623Z,3.60
2017-08-18T10:39:20.291Z,4.00
2017-08-18T10:41:46.962Z,4.07
2017-08-18T10:44:13.632Z,3.70
2017-08-18T10:46:40.322Z,4.00
2017-08-18T10:49:06.978Z,3.23
2017-08-18T10:51:33.668Z,3.73
2017-08-18T10:54:00.332Z,3.30
2017-08-18T10:56:27.020Z,3.20
2017-08-18T10:58:53.684Z,3.40
2017-08-18T11:01:20.392Z,3.73
2017-08-18T11:03:47.056Z,3.70
2017-08-18T11:06:13.715Z,4.43
2017-08-18T11:08:40.385Z,3.70
2017-08-18T11:11:07.052Z,3.63
2017-08-18T11:13:33.720Z,3.60
2017-08-18T11:16:00.391Z,3.87
2017-08-18T11:18:27.051Z,3.67
2017-08-18T11:20:53.725Z,3.97
2017-08-18T11:23:20.393Z,3.80
2017-08-18T11:25:47.056Z,3.50
2017-08-18T11:28:13.747Z,3.80
2017-08-18T11:30:40.469Z,3.83
2017-08-18T11:33:07.179Z,4.53
2017-08-18T11:35:33.848Z,4.00
2017-08-18T11:38:00.560Z,3.77
2017-08-18T11:40:27.223Z,3.80
2017-08-18T11:42:53.891Z,3.90
2017-08-18T11:45:20.563Z,3.47
2017-08-18T11:47:47.236Z,3.90
2017-08-18T11:50:13.912Z,3.53
2017-08-18T11:52:40.580Z,3.80
2017-08-18T11:55:07.249Z,3.50
2017-08-18T11:57:33.916Z,3.43
2017-08-18T12:00:00.592Z,3.60
2017-08-18T12:02:27.267Z,3.47
2017-08-18T12:04:53.939Z,3.70
2017-08-18T12:07:20.608Z,3.27
2017-08-18T12:09:47.291Z,3.40
2017-08-18T12:12:13.962Z,3.97
2017-08-18T12:14:40.672Z,3.70
2017-08-18T12:17:07.336Z,3.87
2017-08-18T12:19:34.004Z,3.63
2017-08-18T12:22:00.671Z,3.97
2017-08-18T12:24:27.340Z,4.30
2017-08-18T12:26:54.003Z,4.20
2017-08-18T12:29:20.672Z,4.40
2017-08-18T12:31:47.340Z,3.90
2017-08-18T12:34:14.003Z,4.43
2017-08-18T12:36:40.660Z,4.23
2017-08-18T12:39:07.324Z,4.07
2017-08-18T12:41:33.980Z,3.87
2017-08-18T12:44:00.653Z,3.23
2017-08-18T12:46:27.312Z,4.00
2017-08-18T12:48:53.975Z,4.97
2017-08-18T12:51:20.655Z,4.30
2017-08-18T12:53:47.321Z,3.90
2017-08-18T12:56:13.984Z,3.27
2017-08-18T12:58:40.675Z,3.50
2017-08-18T13:01:07.339Z,3.20
2017-08-18T13:03:34.027Z,3.10
2017-08-18T13:06:00.703Z,3.20
2017-08-18T13:08:27.396Z,3.43
2017-08-18T13:10:54.059Z,3.50
2017-08-18T13:13:20.752Z,3.77
2017-08-18T13:15:47.416Z,3.07
2017-08-18T13:18:14.125Z,3.20
2017-08-18T13:20:40.796Z,3.20
2017-08-18T13:23:07.460Z,3.60
2017-08-18T13:25:34.128Z,3.63
2017-08-18T13:28:00.796Z,3.80
2017-08-18T13:30:27.488Z,3.73
2017-08-18T13:32:54.164Z,4.27
2017-08-18T13:35:20.848Z,3.80
2017-08-18T13:37:47.524Z,3.40
2017-08-18T13:40:14.212Z,3.60
2017-08-18T13:42:40.884Z,4.20
2017-08-18T13:45:07.572Z,3.20
2017-08-18T13:47:34.237Z,3.90
2017-08-18T13:50:00.949Z,3.73
2017-08-18T13:52:27.611Z,3.60
2017-08-18T13:54:54.268Z,3.60
2017-08-18T13:57:20.937Z,3.47
2017-08-18T13:59:47.599Z,4.20
2017-08-18T14:02:14.267Z,3.73
2017-08-18T14:04:40.932Z,4.07
2017-08-18T14:07:07.619Z,3.50
2017-08-18T14:09:34.287Z,3.67
2017-08-18T14:12:00.980Z,3.60
2017-08-18T14:14:27.643Z,4.00
2017-08-18T14:16:54.335Z,3.80
2017-08-18T14:19:21.004Z,4.03
2017-08-18T14:21:47.695Z,4.00
2017-08-18T14:24:14.360Z,3.70
2017-08-18T14:26:46.905Z,3.50
2017-08-18T14:29:13.572Z,4.00
2017-08-18T14:31:40.259Z,3.50
2017-08-18T14:34:06.924Z,3.70
2017-08-18T14:36:33.586Z,3.50
2017-08-18T14:39:00.247Z,3.77
2017-08-18T14:41:26.908Z,4.50
2017-08-18T14:43:53.571Z,3.40
2017-08-18T14:46:20.325Z,3.57
2017-08-18T14:48:46.984Z,3.83
2017-08-18T14:51:13.647Z,4.20
2017-08-18T14:53:40.333Z,3.73
2017-08-18T14:56:07.000Z,3.60
2017-08-18T14:58:33.691Z,3.90
2017-08-18T15:01:00.356Z,3.60
2017-08-18T15:03:27.020Z,4.10
2017-08-18T15:05:53.684Z,3.73
2017-08-18T15:08:20.351Z,4.37
2017-08-18T15:10:47.020Z,3.83
2017-08-18T15:13:13.688Z,4.40
2017-08-18T15:15:40.369Z,3.90
2017-08-18T15:18:07.043Z,3.70
2017-08-18T15:20:33.735Z,4.10
2017-08-18T15:23:00.404Z,3.93
2017-08-18T15:25:27.092Z,4.47
2017-08-18T15:27:53.757Z,4.13
2017-08-18T15:30:20.449Z,4.00
2017-08-18T15:32:47.112Z,4.40
2017-08-18T15:35:13.779Z,5.00
2017-08-18T15:37:40.472Z,5.40
2017-08-18T15:40:07.155Z,5.07
2017-08-18T15:42:33.819Z,4.20
2017-08-18T15:45:00.480Z,4.80
2017-08-18T15:47:27.151Z,3.90
2017-08-18T15:49:53.811Z,4.23
2017-08-18T15:52:20.499Z,4.43
2017-08-18T15:54:47.163Z,4.60
2017-08-18T15:57:13.848Z,4.40
2017-08-18T15:59:40.507Z,4.90
2017-08-18T16:02:07.196Z,4.87
2017-08-18T16:04:33.863Z,4.67
2017-08-18T16:07:00.547Z,5.53
2017-08-18T16:09:27.212Z,5.20
2017-08-18T16:11:53.916Z,4.30
2017-08-18T16:14:20.585Z,5.53
2017-08-18T16:16:47.251Z,5.00
2017-08-18T16:19:13.916Z,5.43
2017-08-18T16:21:40.601Z,4.40
2017-08-18T16:24:07.267Z,4.83
2017-08-18T16:26:33.945Z,4.43
2017-08-18T16:29:00.633Z,4.70
2017-08-18T16:31:27.301Z,5.00
2017-08-18T16:33:53.996Z,5.70
2017-08-18T16:36:20.676Z,4.95
2017-08-18T16:38:47.370Z,5.50
2017-08-18T16:41:14.053Z,6.37
2017-08-18T16:43:40.768Z,5.50
2017-08-18T16:46:07.447Z,5.60
2017-08-18T16:48:34.120Z,5.85
2017-08-18T16:51:00.800Z,5.90
2017-08-18T16:53:27.474Z,5.87
2017-08-18T16:55:54.148Z,6.45
2017-08-18T16:58:20.812Z,6.25
2017-08-18T17:00:47.487Z,6.60
2017-08-18T17:03:14.156Z,6.00
2017-08-18T17:05:40.920Z,6.68
2017-08-18T17:08:07.597Z,6.80
2017-08-18T17:10:34.272Z,6.82
2017-08-18T17:13:00.944Z,7.32
2017-08-18T17:15:27.616Z,6.03
2017-08-18T17:17:54.292Z,7.53
2017-08-18T17:20:20.965Z,7.28
2017-08-18T17:22:47.636Z,7.75
2017-08-18T17:25:14.304Z,7.20
2017-08-18T17:27:40.981Z,7.50
2017-08-18T17:30:07.676Z,7.43
2017-08-18T17:32:34.344Z,8.07
2017-08-18T17:35:01.010Z,8.00
2017-08-18T17:37:27.681Z,8.10
2017-08-18T17:39:54.349Z,8.52
2017-08-18T17:42:21.836Z,8.48
2017-08-18T17:44:48.508Z,8.90
2017-08-18T17:47:15.182Z,8.25
2017-08-18T17:49:41.852Z,7.30
2017-08-18T17:52:08.519Z,8.20
2017-08-18T17:54:35.200Z,8.68
2017-08-18T17:57:01.868Z,8.23
2017-08-18T17:59:28.532Z,7.50
2017-08-18T18:01:55.239Z,7.72
2017-08-18T18:04:21.913Z,8.60
2017-08-18T18:06:48.588Z,6.93
2017-08-18T18:09:15.259Z,8.80
2017-08-18T18:11:41.940Z,7.70
2017-08-18T18:14:08.607Z,8.20
2017-08-18T18:16:35.284Z,9.00
2017-08-18T18:19:01.964Z,8.07
2017-08-18T18:21:28.628Z,7.80
2017-08-18T18:23:55.296Z,7.93
2017-08-18T18:26:21.984Z,9.25
2017-08-18T18:28:48.652Z,8.27
2017-08-18T18:31:15.332Z,9.57
2017-08-18T18:33:42.036Z,8.68
2017-08-18T18:36:08.728Z,8.23
2017-08-18T18:38:35.409Z,10.10
2017-08-18T18:41:02.091Z,9.15
2017-08-18T18:43:28.760Z,9.02
2017-08-18T18:45:55.460Z,10.30
2017-08-18T18:48:22.136Z,9.90
2017-08-18T18:50:48.839Z,11.32
2017-08-18T18:53:15.512Z,10.60
2017-08-18T18:55:42.213Z,9.52
2017-08-18T18:58:08.887Z,10.85
2017-08-18T19:00:35.609Z,11.45
2017-08-18T19:03:02.309Z,11.48
2017-08-18T19:05:28.999Z,12.50
2017-08-18T19:07:55.675Z,12.27
2017-08-18T19:10:22.348Z,11.32
2017-08-18T19:12:49.064Z,11.20
2017-08-18T19:15:15.743Z,10.52
2017-08-18T19:17:42.460Z,11.70
2017-08-18T19:20:09.153Z,11.38
2017-08-18T19:22:35.856Z,10.95
2017-08-18T19:25:02.812Z,10.38
2017-08-18T19:27:29.520Z,12.07
2017-08-18T19:29:56.200Z,10.80
2017-08-18T19:32:22.920Z,10.77
2017-08-18T19:34:49.596Z,10.00
2017-08-18T19:37:16.268Z,11.05
2017-08-18T19:39:42.942Z,11.18
2017-08-18T19:42:09.624Z,9.40
2017-08-18T19:44:36.337Z,10.85
2017-08-18T19:47:03.017Z,11.18
2017-08-18T19:49:29.721Z,10.02
2017-08-18T19:51:56.389Z,9.73
2017-08-18T19:54:23.084Z,11.32
2017-08-18T19:56:49.751Z,10.90
2017-08-18T19:59:16.466Z,9.45
2017-08-18T20:01:43.164Z,9.90
2017-08-18T20:04:09.969Z,9.85
2017-08-18T20:06:36.640Z,9.90
2017-08-18T20:09:03.351Z,10.48
2017-08-18T20:11:30.051Z,10.00
2017-08-18T20:13:56.763Z,10.30
2017-08-18T20:16:23.431Z,9.85
2017-08-18T20:18:50.116Z,10.43
2017-08-18T20:21:16.812Z,10.30
2017-08-18T20:23:43.484Z,9.80
2017-08-18T20:26:10.163Z,9.07
2017-08-18T20:28:36.840Z,10.18
2017-08-18T20:31:03.504Z,6.43
2017-08-18T20:33:30.168Z,7.15
2017-08-18T20:35:56.865Z,7.05
2017-08-18T20:38:23.549Z,5.60
2017-08-18T20:40:50.276Z,5.22
2017-08-18T20:43:16.943Z,4.75
2017-08-18T20:45:43.624Z,4.37
2017-08-18T20:48:10.292Z,4.55
2017-08-18T20:50:36.960Z,4.03
2017-08-18T20:53:03.623Z,4.80
2017-08-18T20:55:30.287Z,4.62
2017-08-18T20:57:56.956Z,4.30
2017-08-18T21:00:23.700Z,4.30
2017-08-18T21:02:50.372Z,4.20
2017-08-18T21:05:17.035Z,4.60
2017-08-18T21:07:43.706Z,4.93
2017-08-18T21:10:10.367Z,4.60
2017-08-18T21:12:37.059Z,4.10
2017-08-18T21:15:03.724Z,5.05
2017-08-18T21:17:30.433Z,4.70
2017-08-18T21:19:57.107Z,5.05
2017-08-18T21:22:23.780Z,4.05
2017-08-18T21:24:50.447Z,4.87
2017-08-18T21:27:17.128Z,4.22
2017-08-18T21:29:43.793Z,5.55
2017-08-18T21:32:10.464Z,6.37
2017-08-18T21:34:37.124Z,4.80
2017-08-18T21:37:03.784Z,5.65
2017-08-18T21:39:30.476Z,5.30
2017-08-18T21:41:57.148Z,4.82
2017-08-18T21:44:23.843Z,5.93
2017-08-18T21:46:50.503Z,5.50
2017-08-18T21:49:17.188Z,5.90
2017-08-18T21:51:43.859Z,6.10
2017-08-18T21:54:10.574Z,6.10
2017-08-18T21:56:37.248Z,6.43
2017-08-18T21:59:03.919Z,5.95
2017-08-18T22:01:30.609Z,6.18
2017-08-18T22:03:57.280Z,8.35
2017-08-18T22:06:23.946Z,7.12
2017-08-18T22:08:50.666Z,7.15
2017-08-18T22:11:17.328Z,7.32
2017-08-18T22:13:44.000Z,7.50
2017-08-18T22:16:10.689Z,6.65
2017-08-18T22:18:37.375Z,8.55
2017-08-18T22:21:04.064Z,7.45
2017-08-18T22:23:30.727Z,7.32
2017-08-18T22:25:57.412Z,8.02
2017-08-18T22:28:24.084Z,7.00
2017-08-18T22:30:50.755Z,9.52
2017-08-18T22:33:17.441Z,7.62
2017-08-18T22:35:44.123Z,7.35
2017-08-18T22:38:10.796Z,8.50
2017-08-18T22:40:37.463Z,9.80
2017-08-18T22:43:04.136Z,11.40
2017-08-18T22:45:30.812Z,13.50
2017-08-18T22:47:57.483Z,15.27
2017-08-18T22:50:24.163Z,14.05
2017-08-18T22:52:50.875Z,14.70
2017-08-18T22:55:17.552Z,16.60
2017-08-18T22:57:44.236Z,16.05
2017-08-18T23:00:10.912Z,15.25
2017-08-18T23:02:37.583Z,13.77
2017-08-18T23:05:04.252Z,12.00
2017-08-18T23:07:30.928Z,10.98
2017-08-18T23:09:57.603Z,11.40
2017-08-18T23:12:24.304Z,11.32
2017-08-18T23:14:50.988Z,11.88
2017-08-18T23:17:17.674Z,10.60
2017-08-18T23:19:44.348Z,10.27
2017-08-18T23:22:11.019Z,11.05
2017-08-18T23:24:37.696Z,10.85
2017-08-18T23:27:04.373Z,11.30
2017-08-18T23:29:31.051Z,13.02
2017-08-18T23:31:57.723Z,13.60
2017-08-18T23:34:24.424Z,10.70
2017-08-18T23:36:51.104Z,11.85
2017-08-18T23:39:17.796Z,11.68
2017-08-18T23:41:44.467Z,10.30
2017-08-18T23:44:11.136Z,8.98
2017-08-18T23:46:37.804Z,8.50
2017-08-18T23:49:04.473Z,8.75
2017-08-18T23:51:31.138Z,9.80
2017-08-18T23:53:57.812Z,9.02
2017-08-18T23:56:24.481Z,8.50
2017-08-18T23:58:51.161Z,9.55
